Terminal Aerodrome Forecast
Issued by NWS

Home | Current Version | Previous Version | Graphics & Text | Print | Product List | Glossary On
Versions: 1 2 3 4 5 6 7 8 9 10 11 12 13
000
FTUS43 KICT 121100
TAFSLN
TAF
KSLN 121120Z 1212/1312 19011KT P6SM SCT200
     FM121600 20016G23KT P6SM SKC
     FM130100 17011KT P6SM SCT200
     FM130600 34009KT P6SM VCTS BKN060CB OVC100=

USA.gov is the U.S. government's official web portal to all federal, state and local government web resources and services.